メインページ
METAR-TAF:

METAR-TAF

空港 :

エルドレット, ケニヤ

緯度: 00-32N, 経度: 035-17E, 海抜: 2120m

現時点の気象観測

当レポートは44分前の12:00(UTC)に作成
東/南東の風 14kt
気温 23°C
湿度 38%
気圧 1025 hPa
視程10km以上
高度2300ftの雲はほとんどない, 積乱雲.
高度2400ftの雲は散在している
高度30000ftの千切れ雲あり

METAR: HKEL 121200Z 11014KT 9999 FEW023CB SCT024 BKN300 23/08 Q1025

時間: 15:44 (12:44 UTC)

予報

当レポートは1時間44分前の11:00(UTC)に作成
予報は12日の 12時(UTC)から 13日の 12時(UTC)まで有効
東/南東の風 5kt
視程10km以上
高度2200ftの千切れ雲あり
12日の 12時(UTC)から 12日の 18時(UTC)まで一時的に
高度2200ftの雲はほとんどない, 積乱雲.
高度2300ftの千切れ雲あり
高度8000ftの千切れ雲あり
激しい雷雨, 小雨
12日の 20時(UTC)から 12日の 23時(UTC)まで徐々に
東/南東の風 5kt
高度8000ftの千切れ雲あり
13日の 00時(UTC)から 13日の 06時(UTC)まで徐々に
高度1800ftの雲はほとんどない

TAF: HKEL 121100Z 1212/1312 12005KT 9999 BKN022 TEMPO 1212/1218VRB04KT -TSRA FEW022CB BKN023 BKN080 BECMG 1220/1223 12005KT -RABKN016 BKN080 BECMG 1300/1306 FEW018

4,000以上の空港の気象観測と天気予報(METAR報とTAF報)

利用可能な観測所は地図上に黄色い丸と赤い丸で示す。

丸の上にカーソルを重ねると観測所名を参照できる。

次にクリックすると気象観測と天気予報を参照できる。

マップの切り替え:黒色「×」印の緑ボタンをクリックして拡大、「-」印の緑ボタンをクリックして縮小、緑色の三角印をクリックして隣りの地図に切り替え


METAR-TAF: